Aeroporto :
LOGIN :

Iscrizione | Disclaimer

   EN    FR    IT 

 










Sommario :    VFR   VFR Marginale   IFR   IFR Intensivo   IFR Molto Intensivo
Visibilità : 
Base nubi : 
>= 8 km
>= 3000ft
5 / 8 km
1000 / 3000 ft
1500m / 5 km
500 / 1000 ft
800 / 1500m
200 / 500 ft
< 800m
< 200 ft
Simboli :   Temporali  Nebbia  Neve Forte  Precipitazioni Forti  Vento > 20 kt
SIGMETs :   Varie  Temporali  Ghiacco  Turbolenza  Onda orograficha  Ceneri Vulcaniche






- Altitudine del aeroporto : 236 ft
- Codice IATA : MMX


ESMS - Malmö Sturup

ULTIMO METAR :
  • 290450Z 03014KT 6000 -SN SCT011 BKN041 BKN053 00/M01 Q1025

METARs OBSOLETI :
  • 290420Z 03016KT 4600 -SN SCT010 BKN021 OVC026 00/M01 Q1024
  • 290350Z 03014KT 3200 -SN VV021 00/M00 Q1023
  • 290320Z AUTO 03013KT 350V050 4800 -SN FEW009/// SCT012/// BKN020/// 01/00 Q1023
  • 290250Z 04013KT 2500 -SN VV018 00/M00 Q1022
  • 290220Z AUTO 04017KT 0800 R17/P1500N R35/P1500N -SN VV016 00/M00 Q1022

TAF TAF ESMS
Valido dal 29 a 00 ore il 30 a 00 ore UTC


282310Z 2900/2924 03015KT 1200 SNRA BKN008
TEMPO 2900/2905 04018G29KT 6000 -RASN BKN015
BECMG 2905/2907 9999 NSW FEW020
TEMPO 2905/2914 01015G25KT
BECMG 2915/2918 33008KT



MetMap, La meteo Aeronautica in un colpo d'occhio ! - Copyright ORBIFLY Dicembre 2007 - Disclaimer

ORBIFLY MET'MAP TEAM :

Programmazione e sviluppo : Alexandra Zaïnal
Concezione : Baudouin d'Aumeries
Aiuto per la programmazione : Marc-Olivier Méhu
Supporto tecnico e logistico : Manuel Goepfert
Aiuto per la traduzione : Arnaldo La Scala

Contatto : metmap@orbifly.com




FONTI E CREDITI :

   NOAA